CheckWX is a tool to help pilots better visualize weather data.  It is not intended as a substitute for an official pre-flight weather briefing.

21:00:30 UTC

KGYY METAR
Gary / Chicago International Airport
Gary, Indiana, USA
Current

1 hour ago

KGYY 171945Z 07007KT 6SM BR BKN250 24/17 A3015
Observed
Sep-17 @ 19:45 UTC
Wind
  • 070° at 7 KTS
Visibility
6 SM
Flight Rules
VFR
Conditions
Mist
Cloud Levels
  • Broken at 25,000' AGL
Temperature
24°C / 75°F
Dewpoint
17°C / 63°F
Humidity
65%
Altimeter
30.15" Hg
Pressure
1021.02 hPa
Previous

2 hours ago

KGYY 171845Z 03003KT 6SM BR BKN250 23/19 A3017
Observed
Sep-17 @ 18:45 UTC
Wind
  • 030° at 3 KTS
Visibility
6 SM
Flight Rules
VFR
Conditions
Mist
Cloud Levels
  • Broken at 25,000' AGL
Temperature
23°C / 73°F
Dewpoint
19°C / 66°F
Humidity
78%
Altimeter
30.17" Hg
Pressure
1021.72 hPa
Previous

3 hours ago

KGYY 171745Z 00000KT 7SM BKN250 23/19 A3017
Observed
Sep-17 @ 17:45 UTC
Visibility
7 SM
Flight Rules
VFR
Cloud Levels
  • Broken at 25,000' AGL
Temperature
23°C / 73°F
Dewpoint
19°C / 66°F
Humidity
78%
Altimeter
30.17" Hg
Pressure
1021.72 hPa